»·PEaware :: N900EF KSNA-KVGT

N900EF :: KSNA-KVGT

FLIGHT INFORMATION

Flight Status: Arrived
Operator: Privately registered:
United States
More flights under this callsign
Pilot: Isaac R. (8401)
Aircraft: BEECH AIRCRAFT BARON
(BE55)
More flights by this aircraft type
Origin: KSNA John Wayne-Orange Co
United States
Destination: KVGT North Las Vegas
United States
More flights between these airports :: More routes between these airports
Route: +ANAHM1 HEC V21 BLD
File this flight plan on PilotEdge
Remarks:
Altitude:
(Current/Filed)
11,000ft
Speed:
(Current/Filed)
185kts
Departed: 05-Mar-19 04:29 PM
Arrived: 05-Mar-19 05:51 PM
Distance/Time
Traveled:
201nm/1:22
Distance/Time
To Go:
Arrived

Flight Plot

Page will automatically refresh every two minutes.

Flight plan parsing failed; only flown route is shown


Map Options




Map Legend


Flown Route
Filed Route
Departure Airport
Arrival Airport
Navaid (VOR, NDB)
Fix

Horizontal Profiles

Position Reports

Time Latitude Longitude Heading Altitude Ground
Speed
05-Mar-19 16:17 33.670669 -117.868096 214 58ft 0kts
05-Mar-19 16:18 33.670669 -117.868096 214 58ft 0kts
05-Mar-19 16:19 33.670669 -117.868096 214 58ft 0kts
05-Mar-19 16:20 33.670669 -117.868096 214 58ft 0kts
05-Mar-19 16:21 33.670668 -117.868096 214 58ft 0kts
05-Mar-19 16:22 33.670668 -117.868096 214 58ft 0kts
05-Mar-19 16:23 33.670941 -117.868406 313 58ft 0kts
05-Mar-19 16:24 33.671454 -117.868359 22 58ft 10kts
05-Mar-19 16:25 33.673208 -117.867154 41 58ft 2kts
05-Mar-19 16:26 33.677212 -117.865119 26 58ft 27kts
05-Mar-19 16:27 33.680023 -117.864269 216 58ft 2kts
05-Mar-19 16:28 33.665752 -117.873143 220 387ft 104kts
05-Mar-19 16:29 33.646314 -117.902799 232 1745ft 127kts
05-Mar-19 16:30 33.621360 -117.942963 233 2170ft 158kts
05-Mar-19 16:31 33.610573 -117.986024 313 3792ft 133kts
05-Mar-19 16:32 33.641897 -118.000155 335 5338ft 117kts
05-Mar-19 16:33 33.675928 -118.013453 336 6267ft 138kts
05-Mar-19 16:34 33.714891 -118.028497 335 7118ft 153kts
05-Mar-19 16:35 33.756354 -118.044521 334 7932ft 159kts
05-Mar-19 16:36 33.790532 -118.023388 84 8740ft 168kts
05-Mar-19 16:37 33.805273 -117.969110 74 9524ft 172kts
05-Mar-19 16:38 33.819856 -117.914233 75 10303ft 173kts
05-Mar-19 16:39 33.834665 -117.856908 76 10762ft 193kts
05-Mar-19 16:40 33.851827 -117.790082 75 10749ft 219kts
05-Mar-19 16:41 33.870056 -117.719062 75 10743ft 224kts
05-Mar-19 16:42 33.888531 -117.647007 75 10739ft 225kts
05-Mar-19 16:43 33.906387 -117.577175 75 11002ft 220kts
05-Mar-19 16:44 33.939174 -117.517626 18 11013ft 219kts
05-Mar-19 16:45 33.994297 -117.484696 20 10993ft 221kts
05-Mar-19 16:46 34.049550 -117.451417 20 10992ft 222kts
05-Mar-19 16:47 34.105164 -117.417945 20 10991ft 223kts
05-Mar-19 16:48 34.160639 -117.384536 20 10989ft 223kts
05-Mar-19 16:49 34.216265 -117.350986 20 10993ft 222kts
05-Mar-19 16:50 34.271560 -117.317588 20 10994ft 222kts
05-Mar-19 16:51 34.326857 -117.284139 20 10998ft 222kts
05-Mar-19 16:52 34.382059 -117.250679 20 10996ft 222kts
05-Mar-19 16:53 34.437438 -117.217108 20 11006ft 222kts
05-Mar-19 16:54 34.492560 -117.183601 21 11024ft 221kts
05-Mar-19 16:55 34.530038 -117.126460 69 11012ft 227kts
05-Mar-19 16:56 34.556718 -117.056731 65 11001ft 228kts
05-Mar-19 16:57 34.584645 -116.987673 64 10988ft 227kts
05-Mar-19 16:58 34.612690 -116.918812 64 10979ft 226kts
05-Mar-19 16:59 34.640573 -116.850274 64 10967ft 226kts
05-Mar-19 17:00 34.668459 -116.781600 64 10950ft 226kts
05-Mar-19 17:01 34.696165 -116.713223 64 10942ft 225kts
05-Mar-19 17:02 34.723733 -116.645050 64 10940ft 224kts
05-Mar-19 17:03 34.751284 -116.576784 64 10941ft 224kts
05-Mar-19 17:04 34.778648 -116.508837 64 10940ft 224kts
05-Mar-19 17:05 34.810839 -116.444777 44 10950ft 223kts
05-Mar-19 17:06 34.853437 -116.389497 44 10951ft 223kts
05-Mar-19 17:07 34.895923 -116.334035 44 10931ft 224kts
05-Mar-19 17:08 34.938481 -116.278331 44 10931ft 224kts
05-Mar-19 17:09 34.980927 -116.222675 45 10932ft 224kts
05-Mar-19 17:10 35.023383 -116.166911 45 10934ft 224kts
05-Mar-19 17:11 35.066041 -116.110789 45 10927ft 225kts
05-Mar-19 17:12 35.108545 -116.054774 45 10926ft 225kts
05-Mar-19 17:13 35.151090 -115.998616 45 10923ft 225kts
05-Mar-19 17:14 35.193481 -115.942565 45 10921ft 223kts
05-Mar-19 17:15 35.235547 -115.886854 45 10915ft 223kts
05-Mar-19 17:16 35.277717 -115.830915 45 10917ft 223kts
05-Mar-19 17:17 35.319789 -115.775014 45 10904ft 223kts
05-Mar-19 17:18 35.361829 -115.719063 45 10901ft 223kts
05-Mar-19 17:20 35.404055 -115.662769 45 10898ft 224kts
05-Mar-19 17:21 35.447319 -115.605005 46 10896ft 232kts
05-Mar-19 17:22 35.490344 -115.547439 46 10891ft 226kts
05-Mar-19 17:23 35.532940 -115.490323 46 10902ft 231kts
05-Mar-19 17:24 35.576353 -115.432032 46 10898ft 235kts
05-Mar-19 17:25 35.620055 -115.373285 46 10892ft 232kts
05-Mar-19 17:26 35.662928 -115.315562 45 11000ft 229kts
05-Mar-19 17:27 35.706024 -115.257409 46 11005ft 234kts
05-Mar-19 17:28 35.749666 -115.198330 46 11005ft 235kts
05-Mar-19 17:29 35.793140 -115.139449 46 10997ft 234kts
05-Mar-19 17:30 35.836490 -115.080640 45 11002ft 234kts
05-Mar-19 17:31 35.879597 -115.022063 45 10993ft 226kts
05-Mar-19 17:32 35.921618 -114.964889 45 10992ft 228kts
05-Mar-19 17:33 35.977763 -114.959670 333 10354ft 203kts
05-Mar-19 17:34 36.029232 -114.982812 332 9692ft 198kts
05-Mar-19 17:35 36.080934 -115.008374 332 9047ft 204kts
05-Mar-19 17:36 36.133245 -115.036208 332 8382ft 204kts
05-Mar-19 17:37 36.185085 -115.064188 332 7735ft 204kts
05-Mar-19 17:38 36.235916 -115.091766 332 7087ft 196kts
05-Mar-19 17:39 36.282625 -115.116988 332 6973ft 172kts
05-Mar-19 17:39 36.317989 -115.135698 332 6989ft 164kts
05-Mar-19 17:41 36.332924 -115.190269 267 6982ft 150kts
05-Mar-19 17:42 36.336017 -115.241544 267 6849ft 148kts
05-Mar-19 17:42 36.338444 -115.284799 270 6293ft 154kts
05-Mar-19 17:43 36.362230 -115.329741 300 5955ft 147kts
05-Mar-19 17:45 36.340652 -115.342656 162 5983ft 115kts
05-Mar-19 17:45 36.315594 -115.329211 139 5965ft 122kts
05-Mar-19 17:46 36.289297 -115.293291 136 4995ft 152kts
05-Mar-19 17:47 36.261190 -115.258140 131 3803ft 121kts
05-Mar-19 17:48 36.239110 -115.230068 129 3060ft 106kts
05-Mar-19 17:49 36.218973 -115.204694 130 2426ft 102kts
05-Mar-19 17:50 36.206391 -115.189270 221 2207ft 11kts
05-Mar-19 17:51 36.206162 -115.189521 223 2207ft 0kts
05-Mar-19 17:52 36.206162 -115.189521 223 2207ft 0kts
05-Mar-19 17:53 36.206109 -115.189583 223 2207ft 2kts
05-Mar-19 17:54 36.205137 -115.190706 221 2207ft 9kts
05-Mar-19 17:55 36.204633 -115.192563 115 2207ft 5kts
05-Mar-19 17:56 36.204625 -115.192487 88 2207ft 0kts
05-Mar-19 17:57 36.204625 -115.192486 88 2207ft 0kts

Navigation Log

Ident Type
Flight plan parsing failed, navigation log unavailable